createdAt,value
2018-12-03T00:00:25.572Z,95621.62
2018-12-03T00:02:58.106Z,95597.47
2018-12-03T00:05:26.471Z,95583.27
2018-12-03T00:07:54.796Z,95577.64
2018-12-03T00:10:23.133Z,95578.16
2018-12-03T00:12:51.456Z,95585.95
2018-12-03T00:15:19.862Z,95602.86
2018-12-03T00:17:48.205Z,95594.27
2018-12-03T00:20:16.817Z,95606.94
2018-12-03T00:22:45.133Z,95600.45
2018-12-03T00:25:13.520Z,95597.09
2018-12-03T00:27:48.389Z,95603.88
2018-12-03T00:30:16.882Z,95602.87
2018-12-03T00:32:45.390Z,95604.96
2018-12-03T00:35:13.721Z,95588.66
2018-12-03T00:37:42.354Z,95585.28
2018-12-03T00:40:10.667Z,95589.85
2018-12-03T00:42:39.304Z,95585.84
2018-12-03T00:45:07.798Z,95589.88
2018-12-03T00:47:36.140Z,95590.47
2018-12-03T00:50:05.283Z,95592.74
2018-12-03T00:52:33.594Z,95600.53
2018-12-03T00:55:02.229Z,95600.84
2018-12-03T00:57:30.549Z,95612.45
2018-12-03T00:59:59.206Z,95620.05
2018-12-03T01:02:28.223Z,95620.52
2018-12-03T01:04:56.588Z,95622.80
2018-12-03T01:07:24.926Z,95627.37
2018-12-03T01:09:53.266Z,95633.31
2018-12-03T01:12:21.597Z,95627.66
2018-12-03T01:14:49.950Z,95640.00
2018-12-03T01:17:18.299Z,95645.11
2018-12-03T01:19:47.053Z,95650.14
2018-12-03T01:22:15.367Z,95644.78
2018-12-03T01:24:44.013Z,95643.20
2018-12-03T01:27:12.486Z,95648.05
2018-12-03T01:29:41.489Z,95645.97
2018-12-03T01:32:09.803Z,95659.55
2018-12-03T01:34:38.125Z,95654.95
2018-12-03T01:37:06.460Z,95649.53
2018-12-03T01:39:34.797Z,95655.23
2018-12-03T01:42:03.111Z,95652.03
2018-12-03T01:44:31.442Z,95644.78
2018-12-03T01:46:59.754Z,95637.84
2018-12-03T01:49:28.114Z,95642.35
2018-12-03T01:51:56.444Z,95639.31
2018-12-03T01:54:24.820Z,95648.42
2018-12-03T01:56:53.149Z,95650.00
2018-12-03T01:59:21.453Z,95644.09
2018-12-03T02:01:49.789Z,95649.51
2018-12-03T02:04:18.081Z,95646.30
2018-12-03T02:06:46.393Z,95647.31
2018-12-03T02:09:14.721Z,95640.06
2018-12-03T02:11:43.051Z,95643.28
2018-12-03T02:14:11.385Z,95644.94
2018-12-03T02:16:39.721Z,95647.39
2018-12-03T02:19:08.045Z,95648.91
2018-12-03T02:21:36.557Z,95641.94
2018-12-03T02:24:05.571Z,95640.86
2018-12-03T02:26:33.897Z,95642.59
2018-12-03T02:29:02.201Z,95654.20
2018-12-03T02:31:30.549Z,95633.50
2018-12-03T02:33:58.880Z,95633.58
2018-12-03T02:36:27.239Z,95632.47
2018-12-03T02:38:55.558Z,95622.06
2018-12-03T02:41:23.883Z,95623.38
2018-12-03T02:43:52.179Z,95619.89
2018-12-03T02:46:20.505Z,95631.28
2018-12-03T02:48:48.818Z,95630.97
2018-12-03T02:51:17.137Z,95629.11
2018-12-03T02:53:45.459Z,95622.94
2018-12-03T02:56:14.225Z,95616.57
2018-12-03T02:58:42.570Z,95622.66
2018-12-03T03:01:11.212Z,95617.70
2018-12-03T03:03:39.559Z,95615.89
2018-12-03T03:06:07.889Z,95617.47
2018-12-03T03:08:36.670Z,95609.90
2018-12-03T03:11:05.617Z,95611.16
2018-12-03T03:13:33.947Z,95595.65
2018-12-03T03:16:02.281Z,95599.96
2018-12-03T03:18:30.630Z,95593.05
2018-12-03T03:20:58.946Z,95599.22
2018-12-03T03:23:27.283Z,95591.19
2018-12-03T03:25:55.694Z,95605.47
2018-12-03T03:28:24.012Z,95617.29
2018-12-03T03:30:52.323Z,95613.52
2018-12-03T03:33:20.962Z,95605.47
2018-12-03T03:35:49.938Z,95606.62
2018-12-03T03:38:18.306Z,95608.72
2018-12-03T03:40:46.635Z,95601.67
2018-12-03T03:43:14.959Z,95613.52
2018-12-03T03:45:43.280Z,95627.97
2018-12-03T03:48:11.662Z,95625.52
2018-12-03T03:50:40.046Z,95641.30
2018-12-03T03:53:08.775Z,95654.64
2018-12-03T03:55:37.310Z,95663.69
2018-12-03T03:58:06.273Z,95671.77
2018-12-03T04:00:34.773Z,95677.66
2018-12-03T04:03:03.254Z,95687.62
2018-12-03T04:05:31.585Z,95691.42
2018-12-03T04:07:59.938Z,95692.52
2018-12-03T04:10:28.715Z,95703.99
2018-12-03T04:12:57.029Z,95666.98
2018-12-03T04:15:25.350Z,95662.11
2018-12-03T04:17:53.642Z,95650.72
2018-12-03T04:20:22.129Z,95624.55
2018-12-03T04:22:51.834Z,95636.36
2018-12-03T04:25:20.613Z,95653.88
2018-12-03T04:27:48.978Z,95649.68
2018-12-03T04:30:19.132Z,95646.39
2018-12-03T04:32:47.602Z,95660.30
2018-12-03T04:35:15.964Z,95664.59
2018-12-03T04:37:45.066Z,95644.81
2018-12-03T04:40:15.475Z,95629.04
2018-12-03T04:42:43.809Z,95624.33
2018-12-03T04:45:14.070Z,95630.61
2018-12-03T04:47:42.384Z,95607.79
2018-12-03T04:50:25.208Z,95621.32
2018-12-03T04:52:53.493Z,95659.56
2018-12-03T04:55:21.983Z,95658.55
2018-12-03T04:57:50.395Z,95657.34
2018-12-03T05:00:19.595Z,95654.41
2018-12-03T05:02:50.133Z,95654.72
2018-12-03T05:05:18.506Z,95657.89
2018-12-03T05:07:46.809Z,95652.52
2018-12-03T05:10:16.153Z,95656.02
2018-12-03T05:12:46.497Z,95643.23
2018-12-03T05:15:14.992Z,95651.22
2018-12-03T05:17:43.653Z,95648.47
2018-12-03T05:20:13.851Z,95649.40
2018-12-03T05:22:42.232Z,95642.35
2018-12-03T05:25:11.033Z,95643.44
2018-12-03T05:27:39.380Z,95639.93
2018-12-03T05:30:11.661Z,95647.64
2018-12-03T05:32:40.299Z,95648.42
2018-12-03T05:35:10.061Z,95648.91
2018-12-03T05:37:38.469Z,95649.92
2018-12-03T05:40:14.701Z,95653.64
2018-12-03T05:42:43.033Z,95649.36
2018-12-03T05:45:11.350Z,95654.44
2018-12-03T05:47:39.673Z,95653.64
2018-12-03T05:50:10.646Z,95671.84
2018-12-03T05:52:38.969Z,95662.59
2018-12-03T05:55:09.634Z,95661.02
2018-12-03T05:57:37.983Z,95667.48
2018-12-03T06:00:10.508Z,95666.58
2018-12-03T06:02:38.850Z,95675.43
2018-12-03T06:05:08.317Z,95669.52
2018-12-03T06:07:37.189Z,95675.45
2018-12-03T06:10:08.718Z,95670.52
2018-12-03T06:12:37.036Z,95668.98
2018-12-03T06:15:07.428Z,95668.17
2018-12-03T06:17:35.745Z,95669.52
2018-12-03T06:20:04.513Z,95666.86
2018-12-03T06:22:32.842Z,95664.97
2018-12-03T06:25:01.495Z,95666.05
2018-12-03T06:27:29.994Z,95669.34
2018-12-03T06:29:58.317Z,95661.28
2018-12-03T06:32:27.009Z,95645.06
2018-12-03T06:34:55.412Z,95662.98
2018-12-03T06:37:23.926Z,95665.39
2018-12-03T06:39:52.418Z,95663.30
2018-12-03T06:42:20.866Z,95661.08
2018-12-03T06:44:49.189Z,95659.68
2018-12-03T06:47:17.833Z,95666.13
2018-12-03T06:49:46.321Z,95674.78
2018-12-03T06:52:14.793Z,95674.45
2018-12-03T06:54:43.295Z,95668.59
2018-12-03T06:57:11.763Z,95672.10
2018-12-03T06:59:40.271Z,95675.25
2018-12-03T07:02:08.730Z,95682.51
2018-12-03T07:04:37.069Z,95677.39
2018-12-03T07:07:05.714Z,95678.14
2018-12-03T07:09:34.038Z,95670.16
2018-12-03T07:12:02.365Z,95666.83
2018-12-03T07:14:30.689Z,95657.28
2018-12-03T07:16:58.989Z,95654.88
2018-12-03T07:19:27.297Z,95662.94
2018-12-03T07:21:58.677Z,95663.42
2018-12-03T07:24:26.986Z,95668.17
2018-12-03T07:26:55.330Z,95658.49
2018-12-03T07:29:23.683Z,95666.55
2018-12-03T07:31:51.982Z,95674.78
2018-12-03T07:34:20.301Z,95679.08
2018-12-03T07:36:48.614Z,95673.70
2018-12-03T07:39:16.938Z,95669.00
2018-12-03T07:41:45.222Z,95667.55
2018-12-03T07:44:13.541Z,95660.07
2018-12-03T07:46:41.823Z,95664.45
2018-12-03T07:49:10.123Z,95663.13
2018-12-03T07:51:38.446Z,95680.39
2018-12-03T07:54:06.782Z,95677.23
2018-12-03T07:56:35.110Z,95681.70
2018-12-03T07:59:03.445Z,95689.60
2018-12-03T08:01:31.760Z,95694.97
2018-12-03T08:04:00.261Z,95688.09
2018-12-03T08:06:28.746Z,95693.64
2018-12-03T08:08:57.732Z,95688.75
2018-12-03T08:11:26.062Z,95684.23
2018-12-03T08:13:54.365Z,95698.14
2018-12-03T08:16:22.701Z,95694.62
2018-12-03T08:18:51.218Z,95700.72
2018-12-03T08:21:19.562Z,95693.00
2018-12-03T08:23:52.010Z,95692.63
2018-12-03T08:26:20.338Z,95687.56
2018-12-03T08:28:48.625Z,95687.00
2018-12-03T08:31:16.946Z,95688.52
2018-12-03T08:33:45.618Z,95689.52
2018-12-03T08:36:14.370Z,95695.77
2018-12-03T08:38:43.082Z,95699.66
2018-12-03T08:41:11.409Z,95697.58
2018-12-03T08:43:39.718Z,95697.16
2018-12-03T08:46:10.007Z,95703.52
2018-12-03T08:48:39.569Z,95708.81
2018-12-03T08:51:08.379Z,95706.39
2018-12-03T08:53:36.677Z,95710.09
2018-12-03T08:56:05.209Z,95707.23
2018-12-03T08:58:33.529Z,95705.28
2018-12-03T09:01:07.296Z,95708.48
2018-12-03T09:03:36.009Z,95704.13
2018-12-03T09:06:07.334Z,95701.17
2018-12-03T09:08:35.710Z,95702.17
2018-12-03T09:11:04.141Z,95700.84
2018-12-03T09:13:33.121Z,95703.86
2018-12-03T09:16:02.300Z,95707.43
2018-12-03T09:18:39.830Z,95706.09
2018-12-03T09:21:12.122Z,95719.00
2018-12-03T09:23:41.466Z,95729.05
2018-12-03T09:26:10.360Z,95700.41
2018-12-03T09:28:38.706Z,95715.59
2018-12-03T09:31:07.431Z,95693.14
2018-12-03T09:33:35.777Z,95705.48
2018-12-03T09:36:04.134Z,95710.11
2018-12-03T09:38:40.693Z,95713.16
2018-12-03T09:41:09.026Z,95710.41
2018-12-03T09:43:37.585Z,95729.52
2018-12-03T09:46:06.105Z,95720.66
2018-12-03T09:48:34.426Z,95723.53
2018-12-03T09:51:02.737Z,95716.41
2018-12-03T09:53:31.113Z,95711.23
2018-12-03T09:55:59.497Z,95707.84
2018-12-03T09:58:27.860Z,95711.74
2018-12-03T10:00:56.202Z,95707.11
2018-12-03T10:03:30.965Z,95701.39
2018-12-03T10:06:02.597Z,95701.73
2018-12-03T10:08:31.598Z,95693.21
2018-12-03T10:11:01.339Z,95701.13
2018-12-03T10:13:30.646Z,95703.70
2018-12-03T10:15:59.009Z,95693.70
2018-12-03T10:18:27.354Z,95695.50
2018-12-03T10:20:58.034Z,95695.64
2018-12-03T10:23:26.358Z,95695.64
2018-12-03T10:25:56.085Z,95695.33
2018-12-03T10:28:25.756Z,95688.34
2018-12-03T10:30:55.630Z,95688.01
2018-12-03T10:33:32.081Z,95677.86
2018-12-03T10:36:01.992Z,95678.86
2018-12-03T10:38:33.316Z,95684.75
2018-12-03T10:41:36.129Z,95691.36
2018-12-03T10:44:04.528Z,95679.48
2018-12-03T10:46:32.906Z,95652.04
2018-12-03T10:49:04.523Z,95655.60
2018-12-03T10:51:32.857Z,95652.66
2018-12-03T10:54:01.217Z,95661.33
2018-12-03T10:56:29.585Z,95663.68
2018-12-03T10:58:57.959Z,95670.31
2018-12-03T11:01:26.429Z,95669.49
2018-12-03T11:04:01.149Z,95669.77
2018-12-03T11:06:29.521Z,95665.00
2018-12-03T11:08:57.896Z,95667.58
2018-12-03T11:11:26.284Z,95662.16
2018-12-03T11:13:54.702Z,95659.00
2018-12-03T11:16:29.397Z,95651.47
2018-12-03T11:18:57.754Z,95651.48
2018-12-03T11:21:26.773Z,95652.76
2018-12-03T11:23:55.138Z,95658.52
2018-12-03T11:26:30.714Z,95659.47
2018-12-03T11:28:59.070Z,95658.78
2018-12-03T11:31:31.065Z,95666.11
2018-12-03T11:33:59.745Z,95662.56
2018-12-03T11:36:32.321Z,95668.59
2018-12-03T11:39:14.337Z,95662.70
2018-12-03T11:41:42.778Z,95676.78
2018-12-03T11:44:11.145Z,95682.77
2018-12-03T11:46:39.530Z,95665.86
2018-12-03T11:49:08.377Z,95658.69
2018-12-03T11:51:36.747Z,95658.63
2018-12-03T11:54:05.105Z,95655.25
2018-12-03T11:56:33.457Z,95648.96
2018-12-03T11:59:01.785Z,95654.27
2018-12-03T12:01:30.158Z,95645.41
2018-12-03T12:03:58.493Z,95637.36
2018-12-03T12:06:26.839Z,95640.05
2018-12-03T12:08:55.226Z,95626.64
2018-12-03T12:11:23.585Z,95625.69
2018-12-03T12:13:51.914Z,95612.34
2018-12-03T12:16:20.274Z,95614.17
2018-12-03T12:18:48.617Z,95605.40
2018-12-03T12:21:16.995Z,95601.09
2018-12-03T12:23:45.332Z,95602.89
2018-12-03T12:26:13.717Z,95601.43
2018-12-03T12:28:42.174Z,95600.89
2018-12-03T12:31:10.689Z,95596.47
2018-12-03T12:33:39.026Z,95604.28
2018-12-03T12:36:07.393Z,95592.27
2018-12-03T12:38:36.893Z,95594.36
2018-12-03T12:41:05.274Z,95593.78
2018-12-03T12:43:34.074Z,95586.77
2018-12-03T12:46:07.194Z,95587.92
2018-12-03T12:48:35.568Z,95585.38
2018-12-03T12:51:04.199Z,95592.52
2018-12-03T12:53:32.547Z,95598.47
2018-12-03T12:56:01.162Z,95597.53
2018-12-03T12:58:29.612Z,95591.77
2018-12-03T13:00:58.097Z,95579.90
2018-12-03T13:03:26.445Z,95585.59
2018-12-03T13:05:55.038Z,95572.45
2018-12-03T13:08:23.533Z,95581.92
2018-12-03T13:10:52.002Z,95591.62
2018-12-03T13:13:20.386Z,95588.94
2018-12-03T13:15:48.725Z,95594.78
2018-12-03T13:18:19.456Z,95587.85
2018-12-03T13:20:47.973Z,95570.93
2018-12-03T13:23:16.314Z,95568.07
2018-12-03T13:25:44.605Z,95565.95
2018-12-03T13:28:12.932Z,95572.39
2018-12-03T13:30:41.241Z,95571.11
2018-12-03T13:33:09.581Z,95553.73
2018-12-03T13:35:37.890Z,95552.94
2018-12-03T13:38:06.249Z,95549.66
2018-12-03T13:40:34.579Z,95540.16
2018-12-03T13:43:03.311Z,95550.02
2018-12-03T13:45:31.618Z,95521.95
2018-12-03T13:48:00.369Z,95529.95
2018-12-03T13:50:28.761Z,95540.46
2018-12-03T13:52:57.149Z,95542.63
2018-12-03T13:55:25.706Z,95541.07
2018-12-03T13:57:54.030Z,95538.72
2018-12-03T14:00:26.436Z,95528.22
2018-12-03T14:03:15.289Z,95524.58
2018-12-03T14:05:49.117Z,95519.63
2018-12-03T14:08:33.406Z,95519.55
2018-12-03T14:12:22.273Z,95524.86
2018-12-03T14:15:04.686Z,95521.03
2018-12-03T14:17:38.722Z,95511.27
2018-12-03T14:20:08.446Z,95511.20
2018-12-03T14:23:12.682Z,95520.05
2018-12-03T14:25:41.011Z,95528.66
2018-12-03T14:28:09.313Z,95526.00
2018-12-03T14:30:37.650Z,95508.39
2018-12-03T14:33:06.343Z,95520.45
2018-12-03T14:35:34.685Z,95510.05
2018-12-03T14:38:02.994Z,95516.42
2018-12-03T14:40:31.659Z,95515.95
2018-12-03T14:43:00.117Z,95506.85
2018-12-03T14:45:28.663Z,95502.81
2018-12-03T14:47:57.082Z,95506.16
2018-12-03T14:50:25.565Z,95509.90
2018-12-03T14:52:54.041Z,95513.31
2018-12-03T14:55:22.538Z,95516.09
2018-12-03T14:57:52.042Z,95519.55
2018-12-03T15:00:21.205Z,95525.73
2018-12-03T15:02:49.533Z,95529.25
2018-12-03T15:05:18.029Z,95530.97
2018-12-03T15:07:46.366Z,95540.41
2018-12-03T15:10:15.538Z,95533.97
2018-12-03T15:12:43.846Z,95531.28
2018-12-03T15:15:12.309Z,95528.81
2018-12-03T15:17:42.767Z,95527.20
2018-12-03T15:20:11.106Z,95511.13
2018-12-03T15:22:39.490Z,95506.42
2018-12-03T15:25:10.062Z,95514.33
2018-12-03T15:27:38.410Z,95504.35
2018-12-03T15:30:08.437Z,95496.85
2018-12-03T15:32:37.197Z,95485.85
2018-12-03T15:35:07.574Z,95494.86
2018-12-03T15:37:35.907Z,95486.52
2018-12-03T15:40:05.661Z,95482.17
2018-12-03T15:42:34.010Z,95490.20
2018-12-03T15:45:02.324Z,95494.37
2018-12-03T15:47:30.662Z,95490.33
2018-12-03T15:49:58.958Z,95495.08
2018-12-03T15:52:27.289Z,95496.70
2018-12-03T15:54:55.581Z,95502.60
2018-12-03T15:57:23.892Z,95500.96
2018-12-03T15:59:52.209Z,95496.94
2018-12-03T16:02:20.590Z,95505.00
2018-12-03T16:04:48.910Z,95493.50
2018-12-03T16:07:17.231Z,95503.21
2018-12-03T16:09:45.537Z,95502.60
2018-12-03T16:12:13.878Z,95499.19
2018-12-03T16:14:42.662Z,95503.28
2018-12-03T16:17:10.998Z,95507.82
2018-12-03T16:19:39.307Z,95511.13
2018-12-03T16:22:08.089Z,95510.88
2018-12-03T16:24:36.434Z,95499.73
2018-12-03T16:27:05.102Z,95497.11
2018-12-03T16:29:33.433Z,95502.47
2018-12-03T16:32:02.034Z,95502.47
2018-12-03T16:34:30.373Z,95503.83
2018-12-03T16:36:58.993Z,95501.63
2018-12-03T16:39:27.334Z,95499.27
2018-12-03T16:41:55.950Z,95503.81
2018-12-03T16:44:24.466Z,95499.86
2018-12-03T16:46:52.913Z,95495.70
2018-12-03T16:49:21.253Z,95497.67
2018-12-03T16:51:49.553Z,95496.00
2018-12-03T16:54:18.377Z,95501.73
2018-12-03T16:56:46.845Z,95492.63
2018-12-03T16:59:16.358Z,95492.98
2018-12-03T17:01:44.665Z,95495.04
2018-12-03T17:04:13.001Z,95498.53
2018-12-03T17:06:41.293Z,95516.75
2018-12-03T17:09:10.833Z,95519.49
2018-12-03T17:11:39.378Z,95514.95
2018-12-03T17:14:07.693Z,95507.38
2018-12-03T17:16:36.013Z,95510.39
2018-12-03T17:19:04.373Z,95507.50
2018-12-03T17:21:45.981Z,95505.08
2018-12-03T17:24:20.161Z,95502.34
2018-12-03T17:26:48.475Z,95501.36
2018-12-03T17:29:16.801Z,95502.14
2018-12-03T17:31:45.118Z,95512.27
2018-12-03T17:34:13.454Z,95510.80
2018-12-03T17:36:42.037Z,95506.22
2018-12-03T17:39:10.486Z,95497.16
2018-12-03T17:41:39.023Z,95510.84
2018-12-03T17:44:07.988Z,95512.98
2018-12-03T17:46:36.333Z,95508.64
2018-12-03T17:49:04.650Z,95506.34
2018-12-03T17:51:33.002Z,95502.92
2018-12-03T17:54:01.322Z,95512.25
2018-12-03T17:56:29.635Z,95513.09
2018-12-03T17:58:57.958Z,95512.30
2018-12-03T18:01:26.268Z,95517.98
2018-12-03T18:03:54.606Z,95525.95
2018-12-03T18:06:22.935Z,95522.74
2018-12-03T18:08:51.259Z,95525.44
2018-12-03T18:11:19.590Z,95533.23
2018-12-03T18:13:47.899Z,95526.00
2018-12-03T18:16:16.230Z,95528.64
2018-12-03T18:18:44.541Z,95524.34
2018-12-03T18:21:12.854Z,95534.80
2018-12-03T18:23:41.152Z,95536.95
2018-12-03T18:26:09.503Z,95541.48
2018-12-03T18:28:37.802Z,95532.34
2018-12-03T18:31:06.129Z,95529.75
2018-12-03T18:33:34.544Z,95532.44
2018-12-03T18:36:03.042Z,95542.61
2018-12-03T18:38:31.357Z,95541.00
2018-12-03T18:41:03.277Z,95540.22
2018-12-03T18:43:28.062Z,95546.36
2018-12-03T18:45:56.442Z,95542.35
2018-12-03T18:48:24.801Z,95552.52
2018-12-03T18:50:54.945Z,95556.23
2018-12-03T18:53:27.019Z,95557.57
2018-12-03T18:55:55.998Z,95558.37
2018-12-03T18:58:37.073Z,95563.44
2018-12-03T19:01:05.382Z,95573.03
2018-12-03T19:03:33.711Z,95566.66
2018-12-03T19:06:02.878Z,95569.83
2018-12-03T19:08:31.215Z,95579.47
2018-12-03T19:11:00.190Z,95574.65
2018-12-03T19:13:28.517Z,95583.80
2018-12-03T19:15:56.817Z,95586.42
2018-12-03T19:18:25.134Z,95588.84
2018-12-03T19:20:53.438Z,95588.56
2018-12-03T19:23:21.758Z,95588.56
2018-12-03T19:25:50.054Z,95593.94
2018-12-03T19:28:18.606Z,95592.86
2018-12-03T19:30:46.905Z,95598.48
2018-12-03T19:33:16.128Z,95616.70
2018-12-03T19:35:44.505Z,95624.50
2018-12-03T19:38:13.029Z,95617.81
2018-12-03T19:40:41.347Z,95618.58
2018-12-03T19:43:09.688Z,95606.52
2018-12-03T19:45:38.350Z,95620.77
2018-12-03T19:48:06.683Z,95626.97
2018-12-03T19:50:35.402Z,95629.73
2018-12-03T19:53:03.742Z,95633.20
2018-12-03T19:55:32.864Z,95635.63
2018-12-03T19:58:06.578Z,95633.03
2018-12-03T20:00:34.949Z,95641.11
2018-12-03T20:03:03.269Z,95643.06
2018-12-03T20:05:31.579Z,95641.41
2018-12-03T20:07:59.894Z,95645.44
2018-12-03T20:10:28.235Z,95644.67
2018-12-03T20:12:56.550Z,95643.10
2018-12-03T20:15:24.874Z,95667.45
2018-12-03T20:17:53.194Z,95670.13
2018-12-03T20:20:27.851Z,95669.86
2018-12-03T20:23:02.290Z,95670.63
2018-12-03T20:25:35.321Z,95673.57
2018-12-03T20:28:10.282Z,95677.89
2018-12-03T20:30:50.426Z,95685.41
2018-12-03T20:33:22.573Z,95692.38
2018-12-03T20:37:59.430Z,95699.59
2018-12-03T20:41:40.115Z,95709.29
2018-12-03T20:44:22.394Z,95713.59
2018-12-03T20:46:59.562Z,95710.66
2018-12-03T20:50:43.674Z,95717.09
2018-12-03T20:53:11.534Z,95723.25
2018-12-03T20:55:42.282Z,95737.43
2018-12-03T20:58:10.569Z,95738.28
2018-12-03T21:00:39.898Z,95744.94
2018-12-03T21:03:08.217Z,95756.70
2018-12-03T21:05:36.566Z,95762.59
2018-12-03T21:08:04.894Z,95766.63
2018-12-03T21:10:33.694Z,95778.64
2018-12-03T21:13:02.053Z,95783.17
2018-12-03T21:15:30.446Z,95781.80
2018-12-03T21:17:58.798Z,95778.03
2018-12-03T21:20:31.871Z,95779.06
2018-12-03T21:23:00.165Z,95790.05
2018-12-03T21:25:28.478Z,95790.04
2018-12-03T21:27:56.770Z,95804.22
2018-12-03T21:30:25.078Z,95794.88
2018-12-03T21:32:53.389Z,95799.19
2018-12-03T21:35:21.718Z,95798.64
2018-12-03T21:37:50.681Z,95802.66
2018-12-03T21:40:19.287Z,95809.90
2018-12-03T21:42:47.605Z,95823.26
2018-12-03T21:45:18.198Z,95827.01
2018-12-03T21:47:46.482Z,95833.94
2018-12-03T21:50:14.782Z,95844.63
2018-12-03T21:52:43.110Z,95834.70
2018-12-03T21:55:11.418Z,95841.39
2018-12-03T21:57:39.759Z,95839.50
2018-12-03T22:00:08.650Z,95842.45
2018-12-03T22:02:36.978Z,95846.45
2018-12-03T22:05:05.333Z,95852.60
2018-12-03T22:07:33.638Z,95851.50
2018-12-03T22:10:01.951Z,95850.70
2018-12-03T22:12:30.269Z,95848.31
2018-12-03T22:14:58.577Z,95852.58
2018-12-03T22:17:26.918Z,95859.83
2018-12-03T22:19:55.205Z,95862.74
2018-12-03T22:22:23.523Z,95870.81
2018-12-03T22:24:51.838Z,95869.49
2018-12-03T22:27:20.160Z,95875.67
2018-12-03T22:29:48.454Z,95890.39
2018-12-03T22:32:16.933Z,95890.89
2018-12-03T22:34:45.369Z,95886.34
2018-12-03T22:37:13.666Z,95883.44
2018-12-03T22:39:46.366Z,95886.63
2018-12-03T22:42:10.806Z,95891.45
2018-12-03T22:44:39.761Z,95903.25
2018-12-03T22:47:09.398Z,95900.84
2018-12-03T22:49:38.546Z,95910.24
2018-12-03T22:52:06.851Z,95912.64
2018-12-03T22:54:35.158Z,95913.97
2018-12-03T22:57:03.450Z,95924.69
2018-12-03T22:59:31.794Z,95914.51
2018-12-03T23:02:00.094Z,95921.98
2018-12-03T23:04:28.430Z,95941.77
2018-12-03T23:06:56.718Z,95945.24
2018-12-03T23:09:25.038Z,95938.28
2018-12-03T23:11:53.345Z,95951.39
2018-12-03T23:14:21.665Z,95943.36
2018-12-03T23:16:49.954Z,95955.12
2018-12-03T23:19:18.550Z,95942.02
2018-12-03T23:21:46.854Z,95957.53
2018-12-03T23:24:15.165Z,95946.58
2018-12-03T23:26:43.477Z,95960.22
2018-12-03T23:29:11.798Z,95969.86
2018-12-03T23:31:40.114Z,95968.78
2018-12-03T23:34:08.459Z,95979.48
2018-12-03T23:36:36.770Z,95980.30
2018-12-03T23:39:06.958Z,95963.43
2018-12-03T23:41:35.414Z,95980.03
2018-12-03T23:44:03.914Z,95982.45
2018-12-03T23:46:32.409Z,95989.14
2018-12-03T23:49:01.057Z,95983.23
2018-12-03T23:51:29.381Z,95995.55
2018-12-03T23:53:58.349Z,95991.54
2018-12-03T23:56:27.718Z,95993.94
2018-12-03T23:58:56.310Z,95988.59
